createdAt,value
2019-05-25T00:00:32.424Z,12.70
2019-05-25T00:02:59.867Z,12.60
2019-05-25T00:05:28.863Z,12.60
2019-05-25T00:07:56.507Z,12.60
2019-05-25T00:10:24.072Z,12.60
2019-05-25T00:12:53.267Z,12.50
2019-05-25T00:15:20.537Z,12.40
2019-05-25T00:17:49.720Z,12.20
2019-05-25T00:20:18.509Z,12.10
2019-05-25T00:22:45.868Z,12.00
2019-05-25T00:25:13.165Z,11.90
2019-05-25T00:27:40.702Z,11.80
2019-05-25T00:30:08.504Z,11.80
2019-05-25T00:32:35.752Z,11.80
2019-05-25T00:35:03.106Z,11.90
2019-05-25T00:37:30.340Z,11.80
2019-05-25T00:39:57.631Z,11.70
2019-05-25T00:42:25.230Z,11.60
2019-05-25T00:44:52.764Z,11.70
2019-05-25T00:47:20.117Z,11.80
2019-05-25T00:49:49.208Z,11.80
2019-05-25T00:52:18.244Z,11.60
2019-05-25T00:54:45.495Z,11.50
2019-05-25T00:57:12.785Z,11.40
2019-05-25T00:59:40.368Z,11.40
2019-05-25T01:02:07.930Z,11.30
2019-05-25T01:04:35.188Z,11.10
2019-05-25T01:07:03.493Z,11.20
2019-05-25T01:09:31.828Z,11.10
2019-05-25T01:11:59.541Z,11.00
2019-05-25T01:14:27.156Z,11.00
2019-05-25T01:16:54.533Z,10.90
2019-05-25T01:19:21.860Z,11.00
2019-05-25T01:21:49.257Z,11.20
2019-05-25T01:24:16.529Z,11.00
2019-05-25T01:26:44.236Z,11.00
2019-05-25T01:29:11.512Z,10.90
2019-05-25T01:31:39.155Z,10.80
2019-05-25T01:34:06.406Z,10.80
2019-05-25T01:36:34.145Z,10.80
2019-05-25T01:39:01.502Z,10.90
2019-05-25T01:41:28.943Z,11.00
2019-05-25T01:43:56.632Z,11.10
2019-05-25T01:46:24.053Z,11.10
2019-05-25T01:48:51.711Z,11.10
2019-05-25T01:51:19.097Z,11.10
2019-05-25T01:53:46.682Z,11.10
2019-05-25T01:56:14.012Z,11.20
2019-05-25T01:58:41.306Z,11.20
2019-05-25T02:01:08.968Z,11.30
2019-05-25T02:03:36.327Z,11.40
2019-05-25T02:06:03.742Z,11.50
2019-05-25T02:08:31.074Z,11.50
2019-05-25T02:10:58.361Z,11.40
2019-05-25T02:13:25.652Z,11.40
2019-05-25T02:15:54.235Z,11.40
2019-05-25T02:18:21.557Z,11.40
2019-05-25T02:20:50.876Z,11.40
2019-05-25T02:23:18.456Z,11.40
2019-05-25T02:25:46.633Z,11.40
2019-05-25T02:28:14.336Z,11.40
2019-05-25T02:30:41.752Z,11.40
2019-05-25T02:33:09.190Z,11.40
2019-05-25T02:35:36.517Z,11.50
2019-05-25T02:38:04.203Z,11.40
2019-05-25T02:40:31.368Z,11.40
2019-05-25T02:42:58.985Z,11.30
2019-05-25T02:45:26.227Z,11.30
2019-05-25T02:47:53.573Z,11.30
2019-05-25T02:50:20.821Z,11.30
2019-05-25T02:52:48.125Z,11.30
2019-05-25T02:55:15.464Z,11.40
2019-05-25T02:57:42.929Z,11.30
2019-05-25T03:00:10.470Z,11.30
2019-05-25T03:02:37.785Z,11.40
2019-05-25T03:05:05.496Z,11.30
2019-05-25T03:07:34.584Z,11.30
2019-05-25T03:10:03.569Z,11.30
2019-05-25T03:12:32.085Z,11.30
2019-05-25T03:14:59.317Z,11.30
2019-05-25T03:17:26.712Z,11.20
2019-05-25T03:19:53.986Z,11.10
2019-05-25T03:22:21.445Z,11.00
2019-05-25T03:24:48.679Z,11.00
2019-05-25T03:27:15.980Z,11.00
2019-05-25T03:29:43.230Z,10.90
2019-05-25T03:32:10.877Z,11.00
2019-05-25T03:34:38.213Z,10.90
2019-05-25T03:37:05.641Z,10.80
2019-05-25T03:39:33.280Z,10.80
2019-05-25T03:42:00.680Z,10.80
2019-05-25T03:44:27.812Z,10.70
2019-05-25T03:46:55.088Z,10.70
2019-05-25T03:49:22.384Z,10.60
2019-05-25T03:51:49.663Z,10.60
2019-05-25T03:54:16.900Z,10.60
2019-05-25T03:56:44.517Z,10.60
2019-05-25T03:59:11.755Z,10.60
2019-05-25T04:01:38.981Z,10.60
2019-05-25T04:04:06.375Z,10.50
2019-05-25T04:06:33.700Z,10.50
2019-05-25T04:09:01.160Z,10.60
2019-05-25T04:11:28.358Z,10.60
2019-05-25T04:13:56.016Z,10.70
2019-05-25T04:16:23.664Z,10.70
2019-05-25T04:18:51.239Z,10.70
2019-05-25T04:21:18.877Z,10.70
2019-05-25T04:23:46.432Z,10.70
2019-05-25T04:26:21.968Z,10.80
2019-05-25T04:28:42.897Z,10.90
2019-05-25T04:31:10.596Z,10.90
2019-05-25T04:33:38.320Z,10.80
2019-05-25T04:36:05.651Z,10.90
2019-05-25T04:38:33.047Z,11.00
2019-05-25T04:41:00.316Z,11.10
2019-05-25T04:43:27.709Z,11.00
2019-05-25T04:45:55.057Z,11.10
2019-05-25T04:48:22.509Z,11.20
2019-05-25T04:50:49.847Z,11.20
2019-05-25T04:53:17.170Z,11.10
2019-05-25T04:55:44.401Z,11.20
2019-05-25T04:58:12.084Z,11.30
2019-05-25T05:00:39.512Z,11.50
2019-05-25T05:03:06.847Z,11.80
2019-05-25T05:05:34.289Z,11.80
2019-05-25T05:08:01.954Z,11.90
2019-05-25T05:10:29.284Z,11.90
2019-05-25T05:12:56.660Z,11.90
2019-05-25T05:15:24.418Z,12.00
2019-05-25T05:18:00.353Z,12.40
2019-05-25T05:20:29.767Z,12.70
2019-05-25T05:22:57.140Z,12.90
2019-05-25T05:25:24.396Z,12.90
2019-05-25T05:27:51.688Z,13.00
2019-05-25T05:30:29.131Z,12.80
2019-05-25T05:32:56.660Z,12.60
2019-05-25T05:35:23.968Z,12.50
2019-05-25T05:37:51.707Z,12.50
2019-05-25T05:40:18.954Z,12.50
2019-05-25T05:42:48.449Z,12.50
2019-05-25T05:45:16.015Z,12.60
2019-05-25T05:47:46.152Z,12.70
2019-05-25T05:50:13.628Z,12.70
2019-05-25T05:52:41.065Z,12.70
2019-05-25T05:55:09.836Z,12.70
2019-05-25T05:57:37.177Z,12.80
2019-05-25T06:00:05.212Z,12.80
2019-05-25T06:02:32.702Z,12.80
2019-05-25T06:05:00.086Z,12.90
2019-05-25T06:07:27.621Z,13.00
2019-05-25T06:09:55.019Z,13.30
2019-05-25T06:12:22.250Z,14.00
2019-05-25T06:14:49.674Z,14.20
2019-05-25T06:17:16.935Z,14.90
2019-05-25T06:19:44.628Z,15.00
2019-05-25T06:22:12.264Z,14.90
2019-05-25T06:24:39.849Z,14.50
2019-05-25T06:27:07.399Z,14.10
2019-05-25T06:29:34.694Z,13.80
2019-05-25T06:32:01.959Z,13.60
2019-05-25T06:34:29.377Z,13.50
2019-05-25T06:36:57.004Z,13.60
2019-05-25T06:39:24.972Z,14.00
2019-05-25T06:42:07.718Z,14.40
2019-05-25T06:44:37.986Z,14.60
2019-05-25T06:47:18.334Z,14.80
2019-05-25T06:49:54.291Z,14.80
2019-05-25T06:52:41.574Z,14.80
2019-05-25T06:55:09.581Z,14.90
2019-05-25T06:57:43.322Z,15.00
2019-05-25T07:00:14.914Z,15.00
2019-05-25T07:02:42.527Z,15.10
2019-05-25T07:05:09.897Z,15.30
2019-05-25T07:07:37.185Z,15.40
2019-05-25T07:10:05.016Z,15.60
2019-05-25T07:12:34.208Z,15.80
2019-05-25T07:15:06.493Z,15.90
2019-05-25T07:17:45.079Z,16.20
2019-05-25T07:20:17.476Z,16.30
2019-05-25T07:22:54.335Z,16.60
2019-05-25T07:25:28.962Z,16.70
2019-05-25T07:28:01.164Z,17.10
2019-05-25T07:30:28.543Z,17.20
2019-05-25T07:33:00.654Z,17.20
2019-05-25T07:35:29.494Z,17.20
2019-05-25T07:40:41.820Z,17.20
2019-05-25T07:43:17.047Z,17.50
2019-05-25T07:45:46.470Z,17.40
2019-05-25T07:48:17.896Z,17.40
2019-05-25T07:50:53.078Z,17.60
2019-05-25T07:53:28.647Z,18.00
2019-05-25T07:55:56.610Z,18.30
2019-05-25T07:58:29.788Z,18.40
2019-05-25T08:00:57.429Z,18.20
2019-05-25T08:03:24.719Z,17.80
2019-05-25T08:05:51.968Z,17.40
2019-05-25T08:08:19.609Z,17.40
2019-05-25T08:10:46.884Z,17.30
2019-05-25T08:13:14.254Z,17.30
2019-05-25T08:15:42.244Z,17.50
2019-05-25T08:18:09.861Z,17.50
2019-05-25T08:20:37.408Z,17.70
2019-05-25T08:23:04.968Z,17.90
2019-05-25T08:25:32.534Z,18.20
2019-05-25T08:28:00.187Z,18.50
2019-05-25T08:30:27.425Z,18.90
2019-05-25T08:32:54.718Z,19.20
2019-05-25T08:35:22.141Z,19.50
2019-05-25T08:37:49.526Z,19.80
2019-05-25T08:40:16.799Z,20.00
2019-05-25T08:42:44.423Z,20.10
2019-05-25T08:45:11.770Z,20.10
2019-05-25T08:47:39.609Z,20.20
2019-05-25T08:50:07.687Z,20.30
2019-05-25T08:52:35.368Z,20.20
2019-05-25T08:55:02.811Z,20.20
2019-05-25T08:57:36.799Z,20.20
2019-05-25T09:00:04.540Z,20.20
2019-05-25T09:02:31.912Z,20.40
2019-05-25T09:04:59.172Z,20.00
2019-05-25T09:07:28.137Z,20.20
2019-05-25T09:09:57.021Z,20.30
2019-05-25T09:12:37.041Z,20.50
2019-05-25T09:15:17.385Z,20.60
2019-05-25T09:17:50.766Z,20.70
2019-05-25T09:20:29.665Z,20.70
2019-05-25T09:23:04.700Z,20.90
2019-05-25T09:25:36.096Z,21.00
2019-05-25T09:28:16.003Z,21.10
2019-05-25T09:30:43.613Z,21.10
2019-05-25T09:33:15.068Z,21.20
2019-05-25T09:35:46.243Z,21.30
2019-05-25T09:38:22.185Z,21.30
2019-05-25T09:40:49.922Z,21.30
2019-05-25T09:43:17.659Z,21.40
2019-05-25T09:45:44.887Z,21.30
2019-05-25T09:48:12.595Z,21.30
2019-05-25T09:50:39.926Z,21.40
2019-05-25T09:53:07.294Z,21.50
2019-05-25T09:55:34.685Z,21.40
2019-05-25T09:58:05.499Z,21.30
2019-05-25T10:00:33.129Z,21.30
2019-05-25T10:03:00.427Z,21.30
2019-05-25T10:05:27.690Z,21.50
2019-05-25T10:07:55.011Z,21.80
2019-05-25T10:10:22.552Z,22.10
2019-05-25T10:12:50.331Z,22.20
2019-05-25T10:15:17.722Z,21.90
2019-05-25T10:17:45.442Z,21.60
2019-05-25T10:20:13.401Z,21.80
2019-05-25T10:22:41.069Z,21.90
2019-05-25T10:25:08.869Z,22.10
2019-05-25T10:27:36.259Z,22.10
2019-05-25T10:30:05.798Z,22.10
2019-05-25T10:32:33.373Z,22.40
2019-05-25T10:35:07.399Z,22.40
2019-05-25T10:37:35.034Z,22.80
2019-05-25T10:40:06.539Z,23.30
2019-05-25T10:42:39.447Z,23.60
2019-05-25T10:45:11.945Z,23.50
2019-05-25T10:47:44.445Z,23.00
2019-05-25T10:50:23.960Z,22.50
2019-05-25T10:52:55.813Z,22.10
2019-05-25T10:55:23.204Z,21.90
2019-05-25T10:57:50.468Z,21.70
2019-05-25T11:00:18.382Z,22.10
2019-05-25T11:02:45.739Z,22.20
2019-05-25T11:05:13.545Z,22.10
2019-05-25T11:07:40.816Z,23.00
2019-05-25T11:10:08.493Z,24.60
2019-05-25T11:12:35.665Z,25.20
2019-05-25T11:15:03.057Z,24.90
2019-05-25T11:17:30.407Z,24.40
2019-05-25T11:19:57.697Z,24.10
2019-05-25T11:22:25.438Z,24.00
2019-05-25T11:24:53.210Z,24.10
2019-05-25T11:27:20.744Z,24.20
2019-05-25T11:29:48.445Z,23.70
2019-05-25T11:32:16.288Z,22.90
2019-05-25T11:34:43.899Z,22.10
2019-05-25T11:37:14.903Z,21.80
2019-05-25T11:39:41.129Z,22.00
2019-05-25T11:42:08.441Z,22.20
2019-05-25T11:44:35.737Z,23.60
2019-05-25T11:47:03.042Z,24.90
2019-05-25T11:49:30.420Z,26.00
2019-05-25T11:51:57.749Z,26.70
2019-05-25T11:54:25.080Z,26.60
2019-05-25T11:56:52.727Z,26.80
2019-05-25T11:59:19.944Z,27.30
2019-05-25T12:01:47.241Z,26.30
2019-05-25T12:04:18.541Z,25.50
2019-05-25T12:06:46.233Z,25.20
2019-05-25T12:09:13.396Z,25.60
2019-05-25T12:11:44.053Z,26.60
2019-05-25T12:14:15.479Z,26.60
2019-05-25T12:16:43.347Z,25.50
2019-05-25T12:19:10.609Z,24.40
2019-05-25T12:21:37.906Z,23.40
2019-05-25T12:24:05.623Z,23.30
2019-05-25T12:26:32.934Z,23.60
2019-05-25T12:29:00.290Z,23.70
2019-05-25T12:31:27.593Z,24.00
2019-05-25T12:33:54.847Z,24.20
2019-05-25T12:36:22.156Z,25.10
2019-05-25T12:38:49.837Z,26.10
2019-05-25T12:41:18.206Z,25.70
2019-05-25T12:43:46.712Z,25.90
2019-05-25T12:46:14.827Z,26.20
2019-05-25T12:59:52.178Z,24.30
2019-05-25T13:06:01.138Z,22.90
2019-05-25T13:08:31.301Z,22.80
2019-05-25T13:10:59.724Z,22.60
2019-05-25T13:13:28.652Z,22.00
2019-05-25T13:15:56.279Z,22.00
2019-05-25T13:18:25.657Z,22.40
2019-05-25T13:20:54.186Z,22.60
2019-05-25T13:23:23.196Z,22.80
2019-05-25T13:25:50.518Z,22.80
2019-05-25T13:28:18.154Z,22.80
2019-05-25T13:30:45.497Z,22.60
2019-05-25T13:33:14.229Z,22.60
2019-05-25T13:35:41.597Z,22.60
2019-05-25T13:38:09.947Z,22.80
2019-05-25T13:40:37.718Z,22.60
2019-05-25T13:43:06.911Z,22.40
2019-05-25T13:45:34.572Z,22.20
2019-05-25T13:48:01.896Z,22.40
2019-05-25T13:50:29.261Z,22.40
2019-05-25T13:52:57.369Z,22.40
2019-05-25T13:55:24.672Z,22.20
2019-05-25T13:58:14.270Z,22.10
2019-05-25T14:00:42.398Z,22.30
2019-05-25T14:03:11.862Z,22.50
2019-05-25T14:05:39.063Z,22.60
2019-05-25T14:08:07.414Z,22.60
2019-05-25T14:10:35.616Z,23.00
2019-05-25T14:13:03.556Z,22.90
2019-05-25T14:15:34.748Z,22.90
2019-05-25T14:18:03.050Z,22.80
2019-05-25T14:20:31.073Z,22.60
2019-05-25T14:22:59.446Z,22.50
2019-05-25T14:25:26.877Z,22.40
2019-05-25T14:27:54.327Z,22.30
2019-05-25T14:30:23.153Z,22.20
2019-05-25T14:32:50.934Z,22.30
2019-05-25T14:35:18.345Z,22.20
2019-05-25T14:37:47.277Z,22.20
2019-05-25T14:40:16.919Z,22.10
2019-05-25T14:42:51.246Z,22.00
2019-05-25T14:45:18.876Z,22.00
2019-05-25T14:47:46.165Z,22.00
2019-05-25T14:50:14.137Z,22.10
2019-05-25T14:52:43.477Z,22.20
2019-05-25T14:55:11.356Z,21.90
2019-05-25T14:57:39.976Z,21.90
2019-05-25T15:00:09.152Z,22.00
2019-05-25T15:02:36.494Z,22.00
2019-05-25T15:05:04.592Z,21.60
2019-05-25T15:07:31.824Z,21.50
2019-05-25T15:09:59.155Z,21.50
2019-05-25T15:12:26.559Z,21.60
2019-05-25T15:14:53.965Z,21.70
2019-05-25T15:17:21.723Z,21.60
2019-05-25T15:19:49.346Z,21.40
2019-05-25T15:22:16.703Z,21.20
2019-05-25T15:24:44.714Z,21.00
2019-05-25T15:27:12.445Z,20.80
2019-05-25T15:29:39.853Z,20.60
2019-05-25T15:32:19.461Z,20.50
2019-05-25T15:34:36.953Z,20.80
2019-05-25T15:37:04.425Z,21.10
2019-05-25T15:39:32.108Z,21.40
2019-05-25T15:41:59.482Z,21.80
2019-05-25T15:44:26.878Z,21.90
2019-05-25T15:46:54.294Z,22.00
2019-05-25T15:49:32.696Z,21.70
2019-05-25T15:51:55.753Z,21.30
2019-05-25T15:54:23.371Z,21.10
2019-05-25T15:56:51.848Z,20.60
2019-05-25T15:59:23.199Z,20.60
2019-05-25T16:01:48.608Z,20.30
2019-05-25T16:04:15.881Z,20.10
2019-05-25T16:06:43.163Z,20.00
2019-05-25T16:09:10.532Z,20.20
2019-05-25T16:11:37.928Z,20.20
2019-05-25T16:14:07.706Z,20.30
2019-05-25T16:16:38.927Z,20.40
2019-05-25T16:19:06.679Z,20.40
2019-05-25T16:21:34.814Z,20.60
2019-05-25T16:24:03.501Z,20.70
2019-05-25T16:26:44.985Z,20.80
2019-05-25T16:29:01.127Z,20.90
2019-05-25T16:31:29.068Z,21.10
2019-05-25T16:33:57.060Z,21.20
2019-05-25T16:36:26.681Z,21.10
2019-05-25T16:38:54.071Z,21.10
2019-05-25T16:41:21.891Z,21.10
2019-05-25T16:43:49.622Z,21.00
2019-05-25T16:46:17.480Z,20.90
2019-05-25T16:48:45.162Z,20.90
2019-05-25T16:51:13.450Z,20.90
2019-05-25T16:53:41.215Z,20.90
2019-05-25T16:56:10.330Z,20.80
2019-05-25T16:58:38.173Z,20.70
2019-05-25T17:01:06.953Z,20.90
2019-05-25T17:03:36.549Z,20.90
2019-05-25T17:06:03.845Z,20.80
2019-05-25T17:08:32.153Z,20.70
2019-05-25T17:11:00.491Z,20.60
2019-05-25T17:13:28.239Z,20.60
2019-05-25T17:15:55.552Z,20.50
2019-05-25T17:18:22.871Z,20.40
2019-05-25T17:20:50.804Z,20.30
2019-05-25T17:23:19.285Z,20.20
2019-05-25T17:25:46.852Z,20.20
2019-05-25T17:28:14.529Z,20.10
2019-05-25T17:30:46.507Z,20.10
2019-05-25T17:33:14.263Z,20.00
2019-05-25T17:35:41.646Z,19.90
2019-05-25T17:38:10.056Z,19.80
2019-05-25T17:40:37.973Z,19.70
2019-05-25T17:43:05.358Z,19.70
2019-05-25T17:45:33.049Z,19.70
2019-05-25T17:48:01.496Z,19.70
2019-05-25T17:50:32.327Z,19.70
2019-05-25T17:53:00.216Z,19.60
2019-05-25T17:55:29.113Z,19.50
2019-05-25T17:57:57.126Z,19.60
2019-05-25T18:00:46.467Z,19.50
2019-05-25T18:03:15.769Z,19.40
2019-05-25T18:05:43.656Z,19.30
2019-05-25T18:08:11.089Z,19.20
2019-05-25T18:10:52.051Z,19.20
2019-05-25T18:13:08.583Z,19.10
2019-05-25T18:15:35.822Z,19.10
2019-05-25T18:18:04.443Z,19.10
2019-05-25T18:20:32.561Z,19.10
2019-05-25T18:23:01.474Z,19.10
2019-05-25T18:25:29.231Z,19.10
2019-05-25T18:27:56.507Z,19.10
2019-05-25T18:30:24.576Z,19.10
2019-05-25T18:32:51.883Z,19.10
2019-05-25T18:35:19.184Z,19.10
2019-05-25T18:37:47.172Z,19.10
2019-05-25T18:40:15.016Z,19.00
2019-05-25T18:42:42.260Z,18.90
2019-05-25T18:45:09.937Z,18.70
2019-05-25T18:47:37.501Z,18.60
2019-05-25T18:50:06.604Z,18.60
2019-05-25T18:52:34.255Z,18.70
2019-05-25T18:55:02.010Z,18.70
2019-05-25T18:57:29.564Z,18.60
2019-05-25T18:59:56.869Z,18.60
2019-05-25T19:02:24.114Z,18.60
2019-05-25T19:04:59.446Z,18.50
2019-05-25T19:07:21.544Z,18.40
2019-05-25T19:09:48.782Z,18.20
2019-05-25T19:12:16.017Z,18.20
2019-05-25T19:14:43.715Z,18.10
2019-05-25T19:17:11.077Z,17.90
2019-05-25T19:19:38.372Z,17.90
2019-05-25T19:22:06.016Z,17.80
2019-05-25T19:24:33.329Z,17.70
2019-05-25T19:27:02.410Z,17.70
2019-05-25T19:29:29.724Z,17.70
2019-05-25T19:31:57.437Z,17.30
2019-05-25T19:34:25.226Z,17.10
2019-05-25T19:36:53.193Z,16.80
2019-05-25T19:39:20.392Z,16.60
2019-05-25T19:41:47.986Z,17.00
2019-05-25T19:44:15.273Z,17.20
2019-05-25T19:46:43.180Z,17.30
2019-05-25T19:49:10.487Z,17.40
2019-05-25T19:51:37.638Z,17.30
2019-05-25T19:54:05.363Z,17.20
2019-05-25T19:56:33.029Z,17.30
2019-05-25T19:59:00.290Z,17.40
2019-05-25T20:01:28.003Z,17.40
2019-05-25T20:03:57.406Z,17.20
2019-05-25T20:06:24.513Z,17.40
2019-05-25T20:08:51.757Z,17.30
2019-05-25T20:11:19.428Z,17.30
2019-05-25T20:13:47.493Z,17.20
2019-05-25T20:16:15.129Z,16.70
2019-05-25T20:18:42.731Z,16.20
2019-05-25T20:21:10.020Z,16.20
2019-05-25T20:23:37.273Z,16.00
2019-05-25T20:26:04.653Z,16.30
2019-05-25T20:28:31.886Z,16.20
2019-05-25T20:30:59.263Z,16.00
2019-05-25T20:33:27.959Z,15.90
2019-05-25T20:35:55.753Z,16.00
2019-05-25T20:38:23.070Z,16.10
2019-05-25T20:40:50.361Z,16.00
2019-05-25T20:43:18.531Z,16.60
2019-05-25T20:45:46.157Z,16.40
2019-05-25T20:48:13.484Z,16.20
2019-05-25T20:50:40.926Z,16.20
2019-05-25T20:53:08.169Z,15.90
2019-05-25T20:55:35.451Z,16.10
2019-05-25T20:58:02.696Z,15.70
2019-05-25T21:00:29.973Z,15.40
2019-05-25T21:03:06.223Z,15.40
2019-05-25T21:05:26.756Z,15.30
2019-05-25T21:07:54.075Z,15.10
2019-05-25T21:10:21.648Z,15.00
2019-05-25T21:12:48.888Z,14.90
2019-05-25T21:15:16.473Z,14.80
2019-05-25T21:17:44.095Z,14.70
2019-05-25T21:20:12.356Z,14.70
2019-05-25T21:22:39.948Z,14.60
2019-05-25T21:25:07.426Z,14.60
2019-05-25T21:27:35.200Z,14.60
2019-05-25T21:30:03.395Z,14.60
2019-05-25T21:32:30.759Z,14.70
2019-05-25T21:34:58.187Z,14.70
2019-05-25T21:37:25.481Z,14.70
2019-05-25T21:39:52.728Z,14.60
2019-05-25T21:42:20.078Z,14.40
2019-05-25T21:44:47.496Z,14.20
2019-05-25T21:47:15.235Z,14.00
2019-05-25T21:49:42.484Z,13.90
2019-05-25T21:52:10.170Z,13.90
2019-05-25T21:54:37.544Z,13.80
2019-05-25T21:57:05.277Z,13.70
2019-05-25T21:59:32.961Z,13.60
2019-05-25T22:02:00.893Z,13.60
2019-05-25T22:04:28.585Z,13.60
2019-05-25T22:06:56.214Z,13.70
2019-05-25T22:09:23.566Z,13.70
2019-05-25T22:11:51.242Z,13.60
2019-05-25T22:14:18.485Z,13.40
2019-05-25T22:16:45.988Z,13.20
2019-05-25T22:19:13.297Z,13.00
2019-05-25T22:21:40.717Z,12.80
2019-05-25T22:24:08.519Z,12.80
2019-05-25T22:26:35.817Z,12.70
2019-05-25T22:29:03.137Z,12.60
2019-05-25T22:31:30.847Z,12.50
2019-05-25T22:33:59.352Z,12.50
2019-05-25T22:36:39.727Z,12.40
2019-05-25T22:38:56.705Z,12.30
2019-05-25T22:41:24.299Z,12.30
2019-05-25T22:43:53.541Z,12.20
2019-05-25T22:46:20.976Z,12.20
2019-05-25T22:48:48.568Z,12.10
2019-05-25T22:51:16.348Z,12.00
2019-05-25T22:53:43.788Z,11.90
2019-05-25T22:56:11.497Z,11.90
2019-05-25T22:58:39.165Z,11.90
2019-05-25T23:01:06.477Z,12.00
2019-05-25T23:03:36.628Z,12.10
2019-05-25T23:06:04.120Z,12.10
2019-05-25T23:08:31.553Z,12.10
2019-05-25T23:10:58.849Z,12.10
2019-05-25T23:13:26.434Z,12.10
2019-05-25T23:15:53.731Z,12.00
2019-05-25T23:18:21.169Z,11.70
2019-05-25T23:20:48.524Z,11.40
2019-05-25T23:23:15.900Z,11.30
2019-05-25T23:25:43.124Z,11.20
2019-05-25T23:28:11.179Z,11.10
2019-05-25T23:30:39.103Z,11.20
2019-05-25T23:33:06.641Z,11.10
2019-05-25T23:35:34.195Z,11.10
2019-05-25T23:38:03.599Z,11.00
2019-05-25T23:40:30.776Z,10.90
2019-05-25T23:42:58.086Z,10.90
2019-05-25T23:45:28.195Z,10.80
2019-05-25T23:47:57.254Z,10.70
2019-05-25T23:50:24.957Z,10.70
2019-05-25T23:52:52.260Z,10.70
2019-05-25T23:55:19.666Z,10.80
2019-05-25T23:57:48.053Z,10.90
